sensor_id;sensor_type;location;lat;lon;timestamp;P1;durP1;ratioP1;P2;durP2;ratioP2
11238;SDS011;5677;48.488;13.436;2022-11-14T00:00:21;2.80;;;2.27;;
11238;SDS011;5677;48.488;13.436;2022-11-14T00:02:48;2.27;;;2.07;;
11238;SDS011;5677;48.488;13.436;2022-11-14T00:05:15;2.20;;;2.00;;
11238;SDS011;5677;48.488;13.436;2022-11-14T00:07:42;2.50;;;2.30;;
11238;SDS011;5677;48.488;13.436;2022-11-14T00:10:09;2.30;;;2.10;;
11238;SDS011;5677;48.488;13.436;2022-11-14T00:12:39;1.90;;;1.80;;
11238;SDS011;5677;48.488;13.436;2022-11-14T00:15:06;2.50;;;2.30;;
11238;SDS011;5677;48.488;13.436;2022-11-14T00:17:34;2.40;;;2.20;;
11238;SDS011;5677;48.488;13.436;2022-11-14T00:20:01;2.27;;;2.07;;
11238;SDS011;5677;48.488;13.436;2022-11-14T00:22:28;2.23;;;2.03;;
11238;SDS011;5677;48.488;13.436;2022-11-14T00:24:55;2.27;;;2.10;;
11238;SDS011;5677;48.488;13.436;2022-11-14T00:27:22;2.37;;;2.17;;
11238;SDS011;5677;48.488;13.436;2022-11-14T00:29:50;2.40;;;2.20;;
11238;SDS011;5677;48.488;13.436;2022-11-14T00:32:17;2.40;;;2.20;;
11238;SDS011;5677;48.488;13.436;2022-11-14T00:34:44;2.20;;;2.00;;
11238;SDS011;5677;48.488;13.436;2022-11-14T00:37:11;2.43;;;2.23;;
11238;SDS011;5677;48.488;13.436;2022-11-14T00:39:37;2.47;;;2.27;;
11238;SDS011;5677;48.488;13.436;2022-11-14T00:42:04;2.30;;;2.10;;
11238;SDS011;5677;48.488;13.436;2022-11-14T00:44:31;1.90;;;1.80;;
11238;SDS011;5677;48.488;13.436;2022-11-14T00:46:59;2.47;;;2.27;;
11238;SDS011;5677;48.488;13.436;2022-11-14T00:49:26;2.30;;;2.10;;
11238;SDS011;5677;48.488;13.436;2022-11-14T00:51:53;2.10;;;2.00;;
11238;SDS011;5677;48.488;13.436;2022-11-14T00:54:20;2.70;;;2.50;;
11238;SDS011;5677;48.488;13.436;2022-11-14T00:56:46;2.30;;;2.10;;
11238;SDS011;5677;48.488;13.436;2022-11-14T00:59:13;2.83;;;2.57;;
11238;SDS011;5677;48.488;13.436;2022-11-14T01:01:40;2.33;;;2.13;;
11238;SDS011;5677;48.488;13.436;2022-11-14T01:04:08;2.40;;;2.20;;
11238;SDS011;5677;48.488;13.436;2022-11-14T01:06:35;2.50;;;2.30;;
11238;SDS011;5677;48.488;13.436;2022-11-14T01:09:02;2.23;;;2.03;;
11238;SDS011;5677;48.488;13.436;2022-11-14T01:11:29;2.27;;;2.07;;
11238;SDS011;5677;48.488;13.436;2022-11-14T01:13:56;2.40;;;2.20;;
11238;SDS011;5677;48.488;13.436;2022-11-14T01:16:22;2.37;;;2.07;;
11238;SDS011;5677;48.488;13.436;2022-11-14T01:18:49;2.40;;;2.20;;
11238;SDS011;5677;48.488;13.436;2022-11-14T01:21:17;2.40;;;2.20;;
11238;SDS011;5677;48.488;13.436;2022-11-14T01:23:44;2.60;;;2.23;;
11238;SDS011;5677;48.488;13.436;2022-11-14T01:26:12;2.30;;;2.10;;
11238;SDS011;5677;48.488;13.436;2022-11-14T01:28:39;2.23;;;2.03;;
11238;SDS011;5677;48.488;13.436;2022-11-14T01:31:07;2.30;;;2.10;;
11238;SDS011;5677;48.488;13.436;2022-11-14T01:33:35;2.90;;;2.57;;
11238;SDS011;5677;48.488;13.436;2022-11-14T01:36:02;2.53;;;2.33;;
11238;SDS011;5677;48.488;13.436;2022-11-14T01:38:30;2.53;;;2.30;;
11238;SDS011;5677;48.488;13.436;2022-11-14T01:40:58;2.33;;;2.13;;
11238;SDS011;5677;48.488;13.436;2022-11-14T01:43:25;2.60;;;2.40;;
11238;SDS011;5677;48.488;13.436;2022-11-14T01:45:55;2.13;;;1.93;;
11238;SDS011;5677;48.488;13.436;2022-11-14T01:48:25;2.43;;;2.23;;
11238;SDS011;5677;48.488;13.436;2022-11-14T01:50:57;2.40;;;2.20;;
11238;SDS011;5677;48.488;13.436;2022-11-14T01:53:26;2.80;;;2.60;;
11238;SDS011;5677;48.488;13.436;2022-11-14T01:55:56;3.23;;;2.20;;
11238;SDS011;5677;48.488;13.436;2022-11-14T01:58:24;2.53;;;2.33;;
11238;SDS011;5677;48.488;13.436;2022-11-14T02:00:53;2.47;;;2.27;;
11238;SDS011;5677;48.488;13.436;2022-11-14T02:03:21;2.50;;;2.30;;
11238;SDS011;5677;48.488;13.436;2022-11-14T02:05:48;2.93;;;2.63;;
11238;SDS011;5677;48.488;13.436;2022-11-14T02:08:16;2.43;;;2.23;;
11238;SDS011;5677;48.488;13.436;2022-11-14T02:10:43;2.47;;;2.27;;
11238;SDS011;5677;48.488;13.436;2022-11-14T02:13:11;2.93;;;2.60;;
11238;SDS011;5677;48.488;13.436;2022-11-14T02:15:39;2.60;;;2.40;;
11238;SDS011;5677;48.488;13.436;2022-11-14T02:18:06;2.90;;;2.53;;
11238;SDS011;5677;48.488;13.436;2022-11-14T02:20:35;2.67;;;2.30;;
11238;SDS011;5677;48.488;13.436;2022-11-14T02:23:07;2.93;;;2.43;;
11238;SDS011;5677;48.488;13.436;2022-11-14T02:25:35;2.57;;;2.37;;
11238;SDS011;5677;48.488;13.436;2022-11-14T02:28:03;2.60;;;2.40;;
11238;SDS011;5677;48.488;13.436;2022-11-14T02:30:32;2.60;;;2.40;;
11238;SDS011;5677;48.488;13.436;2022-11-14T02:32:59;2.50;;;2.30;;
11238;SDS011;5677;48.488;13.436;2022-11-14T02:35:26;2.70;;;2.50;;
11238;SDS011;5677;48.488;13.436;2022-11-14T02:37:54;2.47;;;2.27;;
11238;SDS011;5677;48.488;13.436;2022-11-14T02:40:21;2.67;;;2.47;;
11238;SDS011;5677;48.488;13.436;2022-11-14T02:42:47;2.37;;;2.17;;
11238;SDS011;5677;48.488;13.436;2022-11-14T02:45:14;2.70;;;2.50;;
11238;SDS011;5677;48.488;13.436;2022-11-14T02:47:41;2.67;;;2.47;;
11238;SDS011;5677;48.488;13.436;2022-11-14T02:50:08;2.63;;;2.43;;
11238;SDS011;5677;48.488;13.436;2022-11-14T02:52:35;2.60;;;2.40;;
11238;SDS011;5677;48.488;13.436;2022-11-14T02:55:04;3.07;;;2.47;;
11238;SDS011;5677;48.488;13.436;2022-11-14T02:57:31;3.27;;;2.87;;
11238;SDS011;5677;48.488;13.436;2022-11-14T02:59:58;2.70;;;2.50;;
11238;SDS011;5677;48.488;13.436;2022-11-14T03:02:25;2.70;;;2.50;;
11238;SDS011;5677;48.488;13.436;2022-11-14T03:04:52;2.53;;;2.30;;
11238;SDS011;5677;48.488;13.436;2022-11-14T03:07:19;2.60;;;2.40;;
11238;SDS011;5677;48.488;13.436;2022-11-14T03:09:46;3.80;;;2.67;;
11238;SDS011;5677;48.488;13.436;2022-11-14T03:12:15;2.40;;;2.20;;
11238;SDS011;5677;48.488;13.436;2022-11-14T03:14:43;2.40;;;2.20;;
11238;SDS011;5677;48.488;13.436;2022-11-14T03:17:10;2.73;;;2.50;;
11238;SDS011;5677;48.488;13.436;2022-11-14T03:19:37;2.60;;;2.40;;
11238;SDS011;5677;48.488;13.436;2022-11-14T03:22:04;3.00;;;2.70;;
11238;SDS011;5677;48.488;13.436;2022-11-14T03:24:31;2.63;;;2.43;;
11238;SDS011;5677;48.488;13.436;2022-11-14T03:26:59;2.53;;;2.33;;
11238;SDS011;5677;48.488;13.436;2022-11-14T03:29:27;2.87;;;2.67;;
11238;SDS011;5677;48.488;13.436;2022-11-14T03:31:54;3.03;;;2.57;;
11238;SDS011;5677;48.488;13.436;2022-11-14T03:34:20;2.63;;;2.43;;
11238;SDS011;5677;48.488;13.436;2022-11-14T03:36:47;2.63;;;2.43;;
11238;SDS011;5677;48.488;13.436;2022-11-14T03:39:14;2.70;;;2.50;;
11238;SDS011;5677;48.488;13.436;2022-11-14T03:41:41;2.63;;;2.40;;
11238;SDS011;5677;48.488;13.436;2022-11-14T03:44:08;3.17;;;2.83;;
11238;SDS011;5677;48.488;13.436;2022-11-14T03:46:36;2.70;;;2.30;;
11238;SDS011;5677;48.488;13.436;2022-11-14T03:49:03;2.50;;;2.30;;
11238;SDS011;5677;48.488;13.436;2022-11-14T03:51:30;2.60;;;2.40;;
11238;SDS011;5677;48.488;13.436;2022-11-14T03:53:57;2.80;;;2.57;;
11238;SDS011;5677;48.488;13.436;2022-11-14T03:56:23;2.60;;;2.40;;
11238;SDS011;5677;48.488;13.436;2022-11-14T03:58:50;2.50;;;2.30;;
11238;SDS011;5677;48.488;13.436;2022-11-14T04:01:17;2.63;;;2.43;;
11238;SDS011;5677;48.488;13.436;2022-11-14T04:03:45;2.93;;;2.63;;
11238;SDS011;5677;48.488;13.436;2022-11-14T04:06:12;2.73;;;2.53;;
11238;SDS011;5677;48.488;13.436;2022-11-14T04:08:39;2.73;;;2.50;;
11238;SDS011;5677;48.488;13.436;2022-11-14T04:11:06;2.87;;;2.57;;
11238;SDS011;5677;48.488;13.436;2022-11-14T04:13:33;2.70;;;2.50;;
11238;SDS011;5677;48.488;13.436;2022-11-14T04:16:00;3.10;;;2.80;;
11238;SDS011;5677;48.488;13.436;2022-11-14T04:18:27;2.43;;;2.23;;
11238;SDS011;5677;48.488;13.436;2022-11-14T04:20:55;2.60;;;2.40;;
11238;SDS011;5677;48.488;13.436;2022-11-14T04:23:22;2.87;;;2.47;;
11238;SDS011;5677;48.488;13.436;2022-11-14T04:25:49;2.80;;;2.40;;
11238;SDS011;5677;48.488;13.436;2022-11-14T04:28:15;2.57;;;2.30;;
11238;SDS011;5677;48.488;13.436;2022-11-14T04:30:42;2.30;;;2.10;;
11238;SDS011;5677;48.488;13.436;2022-11-14T04:33:10;2.60;;;2.40;;
11238;SDS011;5677;48.488;13.436;2022-11-14T04:35:37;2.67;;;2.43;;
11238;SDS011;5677;48.488;13.436;2022-11-14T04:38:05;2.57;;;2.37;;
11238;SDS011;5677;48.488;13.436;2022-11-14T04:40:32;2.87;;;2.30;;
11238;SDS011;5677;48.488;13.436;2022-11-14T04:42:59;2.70;;;2.50;;
11238;SDS011;5677;48.488;13.436;2022-11-14T04:45:25;2.63;;;2.43;;
11238;SDS011;5677;48.488;13.436;2022-11-14T04:47:52;2.47;;;2.27;;
11238;SDS011;5677;48.488;13.436;2022-11-14T04:50:19;2.60;;;2.40;;
11238;SDS011;5677;48.488;13.436;2022-11-14T04:52:46;3.00;;;2.70;;
11238;SDS011;5677;48.488;13.436;2022-11-14T04:55:17;3.00;;;2.63;;
11238;SDS011;5677;48.488;13.436;2022-11-14T04:57:44;2.47;;;2.27;;
11238;SDS011;5677;48.488;13.436;2022-11-14T05:00:11;2.77;;;2.50;;
11238;SDS011;5677;48.488;13.436;2022-11-14T05:02:39;2.30;;;2.10;;
11238;SDS011;5677;48.488;13.436;2022-11-14T05:05:06;2.47;;;2.27;;
11238;SDS011;5677;48.488;13.436;2022-11-14T05:07:33;2.67;;;2.40;;
11238;SDS011;5677;48.488;13.436;2022-11-14T05:10:00;2.63;;;2.40;;
11238;SDS011;5677;48.488;13.436;2022-11-14T05:12:28;2.63;;;2.43;;
11238;SDS011;5677;48.488;13.436;2022-11-14T05:14:55;2.43;;;2.23;;
11238;SDS011;5677;48.488;13.436;2022-11-14T05:17:21;2.67;;;2.47;;
11238;SDS011;5677;48.488;13.436;2022-11-14T05:19:48;2.50;;;2.30;;
11238;SDS011;5677;48.488;13.436;2022-11-14T05:22:15;2.63;;;2.40;;
11238;SDS011;5677;48.488;13.436;2022-11-14T05:24:42;2.83;;;2.53;;
11238;SDS011;5677;48.488;13.436;2022-11-14T05:27:09;3.03;;;2.53;;
11238;SDS011;5677;48.488;13.436;2022-11-14T05:29:37;2.60;;;2.40;;
11238;SDS011;5677;48.488;13.436;2022-11-14T05:32:04;2.93;;;2.63;;
11238;SDS011;5677;48.488;13.436;2022-11-14T05:34:31;3.03;;;2.33;;
11238;SDS011;5677;48.488;13.436;2022-11-14T05:36:57;3.00;;;2.70;;
11238;SDS011;5677;48.488;13.436;2022-11-14T05:39:24;2.40;;;2.20;;
11238;SDS011;5677;48.488;13.436;2022-11-14T05:41:51;2.30;;;2.10;;
11238;SDS011;5677;48.488;13.436;2022-11-14T05:44:18;2.43;;;2.23;;
11238;SDS011;5677;48.488;13.436;2022-11-14T05:46:46;2.63;;;2.43;;
11238;SDS011;5677;48.488;13.436;2022-11-14T05:49:13;2.50;;;2.30;;
11238;SDS011;5677;48.488;13.436;2022-11-14T05:51:39;3.20;;;2.57;;
11238;SDS011;5677;48.488;13.436;2022-11-14T05:54:06;2.60;;;2.40;;
11238;SDS011;5677;48.488;13.436;2022-11-14T05:56:33;2.60;;;2.37;;
11238;SDS011;5677;48.488;13.436;2022-11-14T05:59:00;2.43;;;2.23;;
11238;SDS011;5677;48.488;13.436;2022-11-14T06:01:27;2.87;;;2.63;;
11238;SDS011;5677;48.488;13.436;2022-11-14T06:03:55;2.67;;;2.47;;
11238;SDS011;5677;48.488;13.436;2022-11-14T06:06:22;2.60;;;2.40;;
11238;SDS011;5677;48.488;13.436;2022-11-14T06:08:49;2.70;;;2.50;;
11238;SDS011;5677;48.488;13.436;2022-11-14T06:11:16;2.80;;;2.50;;
11238;SDS011;5677;48.488;13.436;2022-11-14T06:13:44;2.67;;;2.43;;
11238;SDS011;5677;48.488;13.436;2022-11-14T06:16:12;2.73;;;2.47;;
11238;SDS011;5677;48.488;13.436;2022-11-14T06:18:40;2.97;;;2.40;;
11238;SDS011;5677;48.488;13.436;2022-11-14T06:21:10;2.67;;;2.37;;
11238;SDS011;5677;48.488;13.436;2022-11-14T06:23:39;2.60;;;2.40;;
11238;SDS011;5677;48.488;13.436;2022-11-14T06:26:07;2.60;;;2.40;;
11238;SDS011;5677;48.488;13.436;2022-11-14T06:28:39;2.63;;;2.43;;
11238;SDS011;5677;48.488;13.436;2022-11-14T06:31:06;2.93;;;2.60;;
11238;SDS011;5677;48.488;13.436;2022-11-14T06:33:34;2.43;;;2.23;;
11238;SDS011;5677;48.488;13.436;2022-11-14T06:36:02;2.57;;;2.37;;
11238;SDS011;5677;48.488;13.436;2022-11-14T06:38:32;3.57;;;2.60;;
11238;SDS011;5677;48.488;13.436;2022-11-14T06:41:01;2.60;;;2.40;;
11238;SDS011;5677;48.488;13.436;2022-11-14T06:43:28;2.97;;;2.50;;
11238;SDS011;5677;48.488;13.436;2022-11-14T06:45:58;2.60;;;2.30;;
11238;SDS011;5677;48.488;13.436;2022-11-14T06:48:24;2.90;;;2.60;;
11238;SDS011;5677;48.488;13.436;2022-11-14T06:50:51;3.23;;;2.77;;
11238;SDS011;5677;48.488;13.436;2022-11-14T06:53:19;2.57;;;2.37;;
11238;SDS011;5677;48.488;13.436;2022-11-14T06:55:53;2.70;;;2.30;;
11238;SDS011;5677;48.488;13.436;2022-11-14T06:58:20;2.77;;;2.47;;
11238;SDS011;5677;48.488;13.436;2022-11-14T07:00:47;2.50;;;2.30;;
11238;SDS011;5677;48.488;13.436;2022-11-14T07:03:14;2.90;;;2.60;;
11238;SDS011;5677;48.488;13.436;2022-11-14T07:05:40;2.63;;;2.43;;
11238;SDS011;5677;48.488;13.436;2022-11-14T07:08:07;2.53;;;2.33;;
11238;SDS011;5677;48.488;13.436;2022-11-14T07:10:34;2.43;;;2.23;;
11238;SDS011;5677;48.488;13.436;2022-11-14T07:13:02;2.43;;;2.23;;
11238;SDS011;5677;48.488;13.436;2022-11-14T07:15:29;2.60;;;2.33;;
11238;SDS011;5677;48.488;13.436;2022-11-14T07:17:56;2.40;;;2.20;;
11238;SDS011;5677;48.488;13.436;2022-11-14T07:20:23;2.50;;;2.30;;
11238;SDS011;5677;48.488;13.436;2022-11-14T07:22:50;2.20;;;2.00;;
11238;SDS011;5677;48.488;13.436;2022-11-14T07:25:17;2.57;;;2.33;;
11238;SDS011;5677;48.488;13.436;2022-11-14T07:27:45;2.57;;;2.37;;
11238;SDS011;5677;48.488;13.436;2022-11-14T07:30:13;3.30;;;2.50;;
11238;SDS011;5677;48.488;13.436;2022-11-14T07:32:40;2.90;;;2.60;;
11238;SDS011;5677;48.488;13.436;2022-11-14T07:35:07;2.50;;;2.27;;
11238;SDS011;5677;48.488;13.436;2022-11-14T07:37:34;2.83;;;2.53;;
11238;SDS011;5677;48.488;13.436;2022-11-14T07:40:01;3.07;;;2.60;;
11238;SDS011;5677;48.488;13.436;2022-11-14T07:42:28;2.77;;;2.53;;
11238;SDS011;5677;48.488;13.436;2022-11-14T07:44:55;2.83;;;2.57;;
11238;SDS011;5677;48.488;13.436;2022-11-14T07:47:23;2.30;;;2.10;;
11238;SDS011;5677;48.488;13.436;2022-11-14T07:49:50;2.50;;;2.30;;
11238;SDS011;5677;48.488;13.436;2022-11-14T07:52:16;2.40;;;2.20;;
11238;SDS011;5677;48.488;13.436;2022-11-14T07:54:43;2.53;;;2.33;;
11238;SDS011;5677;48.488;13.436;2022-11-14T07:57:10;2.90;;;2.57;;
11238;SDS011;5677;48.488;13.436;2022-11-14T07:59:37;2.50;;;2.30;;
11238;SDS011;5677;48.488;13.436;2022-11-14T08:02:03;3.00;;;2.70;;
11238;SDS011;5677;48.488;13.436;2022-11-14T08:04:31;2.80;;;2.37;;
11238;SDS011;5677;48.488;13.436;2022-11-14T08:06:58;2.60;;;2.40;;
11238;SDS011;5677;48.488;13.436;2022-11-14T08:09:25;3.20;;;2.63;;
11238;SDS011;5677;48.488;13.436;2022-11-14T08:11:52;2.50;;;2.30;;
11238;SDS011;5677;48.488;13.436;2022-11-14T08:14:19;2.57;;;2.33;;
11238;SDS011;5677;48.488;13.436;2022-11-14T08:16:45;2.63;;;2.43;;
11238;SDS011;5677;48.488;13.436;2022-11-14T08:19:12;2.40;;;2.20;;
11238;SDS011;5677;48.488;13.436;2022-11-14T08:21:42;2.33;;;2.13;;
11238;SDS011;5677;48.488;13.436;2022-11-14T08:24:09;2.70;;;2.50;;
11238;SDS011;5677;48.488;13.436;2022-11-14T08:26:35;3.20;;;2.67;;
11238;SDS011;5677;48.488;13.436;2022-11-14T08:29:03;2.50;;;2.30;;
11238;SDS011;5677;48.488;13.436;2022-11-14T08:31:30;3.47;;;2.60;;
11238;SDS011;5677;48.488;13.436;2022-11-14T08:33:57;2.40;;;2.20;;
11238;SDS011;5677;48.488;13.436;2022-11-14T08:36:24;2.70;;;2.20;;
11238;SDS011;5677;48.488;13.436;2022-11-14T08:38:52;2.27;;;2.07;;
11238;SDS011;5677;48.488;13.436;2022-11-14T08:41:19;2.60;;;2.40;;
11238;SDS011;5677;48.488;13.436;2022-11-14T08:43:46;2.33;;;2.13;;
11238;SDS011;5677;48.488;13.436;2022-11-14T08:46:13;2.77;;;2.43;;
11238;SDS011;5677;48.488;13.436;2022-11-14T08:48:40;2.50;;;2.30;;
11238;SDS011;5677;48.488;13.436;2022-11-14T08:51:06;2.60;;;2.40;;
11238;SDS011;5677;48.488;13.436;2022-11-14T08:53:33;2.40;;;2.20;;
11238;SDS011;5677;48.488;13.436;2022-11-14T08:56:02;2.40;;;2.20;;
11238;SDS011;5677;48.488;13.436;2022-11-14T08:58:29;2.53;;;2.33;;
11238;SDS011;5677;48.488;13.436;2022-11-14T09:01:00;2.43;;;2.23;;
11238;SDS011;5677;48.488;13.436;2022-11-14T09:03:27;2.50;;;2.30;;
11238;SDS011;5677;48.488;13.436;2022-11-14T09:05:54;3.13;;;2.30;;
11238;SDS011;5677;48.488;13.436;2022-11-14T09:08:21;2.43;;;2.23;;
11238;SDS011;5677;48.488;13.436;2022-11-14T09:10:48;2.77;;;2.50;;
11238;SDS011;5677;48.488;13.436;2022-11-14T09:13:16;2.40;;;2.20;;
11238;SDS011;5677;48.488;13.436;2022-11-14T09:15:43;2.50;;;2.30;;
11238;SDS011;5677;48.488;13.436;2022-11-14T09:18:10;2.90;;;2.43;;
11238;SDS011;5677;48.488;13.436;2022-11-14T09:20:37;2.27;;;2.07;;
11238;SDS011;5677;48.488;13.436;2022-11-14T09:23:04;2.50;;;2.30;;
11238;SDS011;5677;48.488;13.436;2022-11-14T09:25:31;2.70;;;2.50;;
11238;SDS011;5677;48.488;13.436;2022-11-14T09:28:01;2.37;;;2.17;;
11238;SDS011;5677;48.488;13.436;2022-11-14T09:30:31;2.50;;;2.30;;
11238;SDS011;5677;48.488;13.436;2022-11-14T09:32:59;2.70;;;2.50;;
11238;SDS011;5677;48.488;13.436;2022-11-14T09:35:26;2.60;;;2.40;;
11238;SDS011;5677;48.488;13.436;2022-11-14T09:37:58;2.77;;;2.50;;
11238;SDS011;5677;48.488;13.436;2022-11-14T09:40:25;2.70;;;2.50;;
11238;SDS011;5677;48.488;13.436;2022-11-14T09:42:59;2.33;;;2.10;;
11238;SDS011;5677;48.488;13.436;2022-11-14T09:45:45;2.20;;;2.00;;
11238;SDS011;5677;48.488;13.436;2022-11-14T09:48:17;2.60;;;2.40;;
11238;SDS011;5677;48.488;13.436;2022-11-14T09:50:47;2.63;;;2.43;;
11238;SDS011;5677;48.488;13.436;2022-11-14T09:53:22;3.07;;;2.73;;
11238;SDS011;5677;48.488;13.436;2022-11-14T09:55:56;2.10;;;1.90;;
11238;SDS011;5677;48.488;13.436;2022-11-14T09:58:23;2.20;;;2.00;;
11238;SDS011;5677;48.488;13.436;2022-11-14T10:00:55;2.27;;;2.07;;
11238;SDS011;5677;48.488;13.436;2022-11-14T10:03:31;2.40;;;2.10;;
11238;SDS011;5677;48.488;13.436;2022-11-14T10:06:11;2.30;;;2.10;;
11238;SDS011;5677;48.488;13.436;2022-11-14T10:08:48;2.30;;;2.10;;
11238;SDS011;5677;48.488;13.436;2022-11-14T10:11:28;2.47;;;2.27;;
11238;SDS011;5677;48.488;13.436;2022-11-14T10:14:21;2.30;;;2.10;;
11238;SDS011;5677;48.488;13.436;2022-11-14T10:17:16;2.00;;;1.90;;
11238;SDS011;5677;48.488;13.436;2022-11-14T10:19:51;2.20;;;2.00;;
11238;SDS011;5677;48.488;13.436;2022-11-14T10:22:26;2.23;;;2.03;;
11238;SDS011;5677;48.488;13.436;2022-11-14T10:25:12;1.63;;;1.53;;
11238;SDS011;5677;48.488;13.436;2022-11-14T10:27:48;2.23;;;2.03;;
11238;SDS011;5677;48.488;13.436;2022-11-14T10:30:25;2.77;;;2.30;;
11238;SDS011;5677;48.488;13.436;2022-11-14T10:33:04;2.20;;;2.00;;
11238;SDS011;5677;48.488;13.436;2022-11-14T10:35:38;2.33;;;2.03;;
11238;SDS011;5677;48.488;13.436;2022-11-14T10:38:10;2.63;;;2.40;;
11238;SDS011;5677;48.488;13.436;2022-11-14T10:40:41;2.20;;;2.03;;
11238;SDS011;5677;48.488;13.436;2022-11-14T10:43:14;2.33;;;2.13;;
11238;SDS011;5677;48.488;13.436;2022-11-14T10:45:46;2.03;;;1.93;;
11238;SDS011;5677;48.488;13.436;2022-11-14T10:48:23;2.47;;;2.27;;
11238;SDS011;5677;48.488;13.436;2022-11-14T10:50:55;2.07;;;1.87;;
11238;SDS011;5677;48.488;13.436;2022-11-14T10:53:25;2.60;;;2.40;;
11238;SDS011;5677;48.488;13.436;2022-11-14T10:55:58;2.67;;;2.47;;
11238;SDS011;5677;48.488;13.436;2022-11-14T10:58:25;2.37;;;2.17;;
11238;SDS011;5677;48.488;13.436;2022-11-14T11:00:52;2.50;;;2.30;;
11238;SDS011;5677;48.488;13.436;2022-11-14T11:03:20;2.10;;;1.90;;
11238;SDS011;5677;48.488;13.436;2022-11-14T11:06:08;2.43;;;2.23;;
11238;SDS011;5677;48.488;13.436;2022-11-14T11:08:51;2.43;;;2.23;;
11238;SDS011;5677;48.488;13.436;2022-11-14T11:11:36;2.10;;;1.90;;
11238;SDS011;5677;48.488;13.436;2022-11-14T11:14:14;2.40;;;2.20;;
11238;SDS011;5677;48.488;13.436;2022-11-14T11:16:42;2.37;;;2.13;;
11238;SDS011;5677;48.488;13.436;2022-11-14T11:19:13;2.63;;;2.13;;
11238;SDS011;5677;48.488;13.436;2022-11-14T11:21:49;2.67;;;2.07;;
11238;SDS011;5677;48.488;13.436;2022-11-14T11:27:11;2.40;;;2.20;;
11238;SDS011;5677;48.488;13.436;2022-11-14T11:29:39;2.00;;;1.90;;
11238;SDS011;5677;48.488;13.436;2022-11-14T11:32:06;3.80;;;2.10;;
11238;SDS011;5677;48.488;13.436;2022-11-14T11:34:35;2.40;;;2.20;;
11238;SDS011;5677;48.488;13.436;2022-11-14T11:37:02;2.20;;;1.93;;
11238;SDS011;5677;48.488;13.436;2022-11-14T11:39:36;2.20;;;2.00;;
11238;SDS011;5677;48.488;13.436;2022-11-14T11:42:07;2.00;;;1.90;;
11238;SDS011;5677;48.488;13.436;2022-11-14T11:44:42;2.30;;;2.10;;
11238;SDS011;5677;48.488;13.436;2022-11-14T11:47:14;2.30;;;2.10;;
11238;SDS011;5677;48.488;13.436;2022-11-14T11:49:45;2.20;;;2.00;;
11238;SDS011;5677;48.488;13.436;2022-11-14T11:52:15;2.50;;;2.03;;
11238;SDS011;5677;48.488;13.436;2022-11-14T11:54:52;2.20;;;2.00;;
11238;SDS011;5677;48.488;13.436;2022-11-14T11:57:26;2.30;;;2.10;;
11238;SDS011;5677;48.488;13.436;2022-11-14T11:59:58;2.00;;;1.80;;
11238;SDS011;5677;48.488;13.436;2022-11-14T12:02:30;1.90;;;1.80;;
11238;SDS011;5677;48.488;13.436;2022-11-14T12:04:58;2.07;;;1.97;;
11238;SDS011;5677;48.488;13.436;2022-11-14T12:07:30;1.87;;;1.77;;
11238;SDS011;5677;48.488;13.436;2022-11-14T12:10:04;1.87;;;1.73;;
11238;SDS011;5677;48.488;13.436;2022-11-14T12:12:47;2.37;;;2.17;;
11238;SDS011;5677;48.488;13.436;2022-11-14T12:15:38;2.37;;;2.17;;
11238;SDS011;5677;48.488;13.436;2022-11-14T12:18:16;2.10;;;1.90;;
11238;SDS011;5677;48.488;13.436;2022-11-14T12:21:06;2.00;;;1.80;;
11238;SDS011;5677;48.488;13.436;2022-11-14T12:26:43;2.33;;;2.13;;
11238;SDS011;5677;48.488;13.436;2022-11-14T12:29:30;1.93;;;1.70;;
11238;SDS011;5677;48.488;13.436;2022-11-14T12:32:12;2.30;;;2.10;;
11238;SDS011;5677;48.488;13.436;2022-11-14T12:34:44;2.43;;;1.90;;
11238;SDS011;5677;48.488;13.436;2022-11-14T12:37:15;2.00;;;1.90;;
11238;SDS011;5677;48.488;13.436;2022-11-14T12:39:53;2.10;;;1.90;;
11238;SDS011;5677;48.488;13.436;2022-11-14T12:42:22;2.10;;;1.90;;
11238;SDS011;5677;48.488;13.436;2022-11-14T12:44:49;2.00;;;1.90;;
11238;SDS011;5677;48.488;13.436;2022-11-14T12:47:17;1.80;;;1.70;;
11238;SDS011;5677;48.488;13.436;2022-11-14T12:49:56;2.17;;;1.97;;
11238;SDS011;5677;48.488;13.436;2022-11-14T12:52:52;2.10;;;1.90;;
11238;SDS011;5677;48.488;13.436;2022-11-14T12:58:30;2.30;;;2.00;;
11238;SDS011;5677;48.488;13.436;2022-11-14T13:01:18;2.00;;;1.80;;
11238;SDS011;5677;48.488;13.436;2022-11-14T13:03:57;1.77;;;1.67;;
11238;SDS011;5677;48.488;13.436;2022-11-14T13:06:40;1.93;;;1.83;;
11238;SDS011;5677;48.488;13.436;2022-11-14T13:09:33;2.10;;;1.90;;
11238;SDS011;5677;48.488;13.436;2022-11-14T13:15:22;2.57;;;2.23;;
11238;SDS011;5677;48.488;13.436;2022-11-14T13:18:13;2.23;;;1.90;;
11238;SDS011;5677;48.488;13.436;2022-11-14T13:21:03;1.97;;;1.77;;
11238;SDS011;5677;48.488;13.436;2022-11-14T13:23:53;2.33;;;2.13;;
11238;SDS011;5677;48.488;13.436;2022-11-14T13:26:38;2.10;;;1.90;;
11238;SDS011;5677;48.488;13.436;2022-11-14T13:35:35;2.47;;;2.10;;
11238;SDS011;5677;48.488;13.436;2022-11-14T13:38:33;2.20;;;2.00;;
11238;SDS011;5677;48.488;13.436;2022-11-14T13:41:40;1.87;;;1.77;;
11238;SDS011;5677;48.488;13.436;2022-11-14T13:44:46;2.33;;;2.13;;
11238;SDS011;5677;48.488;13.436;2022-11-14T13:50:37;2.03;;;1.87;;
11238;SDS011;5677;48.488;13.436;2022-11-14T13:53:10;1.87;;;1.77;;
11238;SDS011;5677;48.488;13.436;2022-11-14T13:55:44;1.83;;;1.70;;
11238;SDS011;5677;48.488;13.436;2022-11-14T13:58:25;2.13;;;1.93;;
11238;SDS011;5677;48.488;13.436;2022-11-14T14:01:03;2.10;;;1.90;;
11238;SDS011;5677;48.488;13.436;2022-11-14T14:03:42;1.70;;;1.60;;
11238;SDS011;5677;48.488;13.436;2022-11-14T14:06:29;2.03;;;1.87;;
11238;SDS011;5677;48.488;13.436;2022-11-14T14:09:05;1.97;;;1.80;;
11238;SDS011;5677;48.488;13.436;2022-11-14T14:14:35;2.20;;;2.00;;
11238;SDS011;5677;48.488;13.436;2022-11-14T14:17:23;1.80;;;1.70;;
11238;SDS011;5677;48.488;13.436;2022-11-14T14:20:00;2.20;;;2.00;;
11238;SDS011;5677;48.488;13.436;2022-11-14T14:22:40;2.00;;;1.80;;
11238;SDS011;5677;48.488;13.436;2022-11-14T14:25:13;1.90;;;1.80;;
11238;SDS011;5677;48.488;13.436;2022-11-14T14:27:49;2.10;;;1.90;;
11238;SDS011;5677;48.488;13.436;2022-11-14T14:30:26;2.13;;;2.03;;
11238;SDS011;5677;48.488;13.436;2022-11-14T14:33:08;2.37;;;1.90;;
11238;SDS011;5677;48.488;13.436;2022-11-14T14:35:48;1.97;;;1.77;;
11238;SDS011;5677;48.488;13.436;2022-11-14T14:38:23;1.93;;;1.83;;
11238;SDS011;5677;48.488;13.436;2022-11-14T14:40:51;1.80;;;1.70;;
11238;SDS011;5677;48.488;13.436;2022-11-14T14:43:22;2.10;;;1.90;;
11238;SDS011;5677;48.488;13.436;2022-11-14T14:45:55;1.70;;;1.60;;
11238;SDS011;5677;48.488;13.436;2022-11-14T14:48:22;2.40;;;2.20;;
11238;SDS011;5677;48.488;13.436;2022-11-14T14:50:52;2.10;;;1.90;;
11238;SDS011;5677;48.488;13.436;2022-11-14T14:53:20;1.80;;;1.70;;
11238;SDS011;5677;48.488;13.436;2022-11-14T14:55:50;2.23;;;2.03;;
11238;SDS011;5677;48.488;13.436;2022-11-14T14:58:23;2.10;;;1.90;;
11238;SDS011;5677;48.488;13.436;2022-11-14T15:00:52;1.87;;;1.77;;
11238;SDS011;5677;48.488;13.436;2022-11-14T15:03:23;2.20;;;2.00;;
11238;SDS011;5677;48.488;13.436;2022-11-14T15:05:56;2.20;;;1.90;;
11238;SDS011;5677;48.488;13.436;2022-11-14T15:08:24;1.80;;;1.70;;
11238;SDS011;5677;48.488;13.436;2022-11-14T15:10:51;1.90;;;1.73;;
11238;SDS011;5677;48.488;13.436;2022-11-14T15:13:21;1.70;;;1.60;;
11238;SDS011;5677;48.488;13.436;2022-11-14T15:15:49;1.90;;;1.80;;
11238;SDS011;5677;48.488;13.436;2022-11-14T15:18:21;2.27;;;1.93;;
11238;SDS011;5677;48.488;13.436;2022-11-14T15:23:35;1.73;;;1.63;;
11238;SDS011;5677;48.488;13.436;2022-11-14T15:26:04;1.93;;;1.80;;
11238;SDS011;5677;48.488;13.436;2022-11-14T15:28:38;2.53;;;1.90;;
11238;SDS011;5677;48.488;13.436;2022-11-14T15:31:05;1.67;;;1.57;;
11238;SDS011;5677;48.488;13.436;2022-11-14T15:33:34;1.53;;;1.43;;